Time;durP1;ratioP1;P1;durP2;ratioP2;P2;SDS_P1;SDS_P2;PMS_P1;PMS_P2;Temp;Humidity;BMP_temperature;BMP_pressure;BME280_temperature;BME280_humidity;BME280_pressure;Samples;Min_cycle;Max_cycle;Signal;HPM_P1;HPM_P2
2021/10/24 00:11:27;;;;;;;13.50;7.32;;;10.20;95.00;;;;;;4937988;24;20068;-90
2021/10/24 00:13:53;;;;;;;14.55;7.88;;;10.10;95.10;;;;;;4810472;29;20055;-90
2021/10/24 00:16:28;;;;;;;13.75;7.72;;;10.10;95.20;;;;;;4806346;29;20046;-90
2021/10/24 00:24:44;;;;;;;12.57;7.70;;;10.00;95.30;;;;;;5646293;24;20055;-90
2021/10/24 00:31:42;;;;;;;10.98;7.43;;;10.00;95.30;;;;;;4791105;29;20062;-90
2021/10/24 01:20:59;;;;;;;12.70;7.65;;;9.50;95.30;;;;;;4982794;24;20051;-88
2021/10/24 01:27:01;;;;;;;14.35;8.60;;;9.50;95.50;;;;;;4801099;29;20450;-87
2021/10/24 01:29:49;;;;;;;16.25;8.20;;;9.50;95.80;;;;;;4770362;30;20047;-87
2021/10/24 01:46:24;;;;;;;12.05;8.13;;;9.40;95.90;;;;;;4791669;29;20173;-87
2021/10/24 01:48:50;;;;;;;11.02;8.13;;;9.30;95.90;;;;;;4790311;29;20134;-87
2021/10/24 01:51:43;;;;;;;13.18;9.02;;;9.30;96.10;;;;;;4789020;29;20165;-88
2021/10/24 01:54:47;;;;;;;12.63;8.15;;;9.30;96.20;;;;;;4789942;29;20050;-88
2021/10/24 01:57:43;;;;;;;;;;;9.30;96.00;;;;;;4753105;30;20052;-87
2021/10/24 02:00:28;;;;;;;14.70;8.60;;;9.20;95.40;;;;;;4753478;30;19936;-88
2021/10/24 02:03:24;;;;;;;13.90;8.63;;;9.20;96.10;;;;;;4881081;23;20087;-88
2021/10/24 02:05:50;;;;;;;12.73;8.00;;;9.20;96.30;;;;;;4811455;29;20141;-87
2021/10/24 02:22:17;;;;;;;13.10;8.20;;;8.90;96.20;;;;;;5145096;24;20070;-88
2021/10/24 02:25:00;;;;;;;16.15;9.30;;;8.90;96.30;;;;;;5191792;24;20033;-87
2021/10/24 02:34:44;;;;;;;13.77;8.20;;;8.80;95.70;;;;;;4774253;30;20146;-87
2021/10/24 02:47:52;;;;;;;16.88;9.57;;;8.70;96.30;;;;;;4803387;29;20045;-87
2021/10/24 03:13:49;;;;;;;17.15;10.38;;;8.30;96.50;;;;;;5458522;24;20062;-87
2021/10/24 03:16:43;;;;;;;17.23;9.35;;;8.30;96.60;;;;;;4800291;29;20467;-87
2021/10/24 03:19:43;;;;;;;;;;;8.30;96.40;;;;;;4795539;29;20058;-87
2021/10/24 03:39:05;;;;;;;16.98;11.00;;;8.10;95.90;;;;;;4785420;29;20090;-87
2021/10/24 03:41:49;;;;;;;18.25;10.50;;;8.00;96.30;;;;;;4792121;29;20089;-88
2021/10/24 03:47:00;;;;;;;16.13;10.55;;;8.00;96.60;;;;;;4800185;27;20071;-87
2021/10/24 03:49:26;;;;;;;17.70;10.98;;;8.00;96.70;;;;;;4791325;29;20089;-87
2021/10/24 03:51:54;;;;;;;20.15;10.65;;;8.00;96.60;;;;;;4792014;29;20487;-87
2021/10/24 03:54:20;;;;;;;19.35;10.57;;;7.90;96.50;;;;;;4792318;29;20042;-87
2021/10/24 03:56:48;;;;;;;17.75;11.57;;;7.90;96.30;;;;;;4791976;29;20404;-87
2021/10/24 03:59:14;;;;;;;18.33;9.95;;;7.90;96.50;;;;;;4800926;29;20049;-87
2021/10/24 04:12:50;;;;;;;14.63;9.85;;;7.70;96.10;;;;;;4768882;30;20497;-87
2021/10/24 04:15:44;;;;;;;16.65;10.23;;;7.60;96.20;;;;;;4755105;30;20067;-88
2021/10/24 04:18:43;;;;;;;16.77;10.35;;;7.70;96.00;;;;;;4754167;30;20490;-87
2021/10/24 04:32:46;;;;;;;17.17;10.85;;;7.50;96.40;;;;;;4751540;30;20059;-87
2021/10/24 04:35:42;;;;;;;17.58;10.32;;;7.50;96.60;;;;;;4737101;30;20114;-87
2021/10/24 05:04:44;;;;;;;16.92;10.63;;;7.20;96.70;;;;;;4728514;30;20063;-88
2021/10/24 05:21:43;;;;;;;;;;;7.10;96.60;;;;;;4750491;30;20064;-87
2021/10/24 05:24:46;;;;;;;14.20;9.43;;;7.00;96.00;;;;;;4735693;30;19951;-87
2021/10/24 05:27:48;;;;;;;19.38;10.48;;;7.10;96.50;;;;;;4701390;30;20336;-88
2021/10/24 05:30:44;;;;;;;14.57;9.98;;;7.10;96.70;;;;;;4742217;30;20059;-87
2021/10/24 05:33:43;;;;;;;14.43;9.35;;;7.10;96.70;;;;;;4750345;30;20161;-87
2021/10/24 05:36:46;;;;;;;15.68;9.73;;;7.00;96.60;;;;;;4734901;30;20139;-87
2021/10/24 05:39:45;;;;;;;15.50;10.43;;;7.00;96.90;;;;;;4732288;30;20053;-88
2021/10/24 05:42:26;;;;;;;14.00;9.82;;;7.00;96.90;;;;;;4717807;30;20052;-88
2021/10/24 05:44:52;;;;;;;14.95;9.85;;;7.00;96.60;;;;;;4732147;30;20060;-88
2021/10/24 05:47:51;;;;;;;15.23;9.98;;;6.90;96.50;;;;;;4736171;30;20046;-87
2021/10/24 05:50:50;;;;;;;16.98;10.45;;;7.00;96.70;;;;;;4735154;30;20429;-88
2021/10/24 05:53:27;;;;;;;16.75;9.65;;;6.90;96.70;;;;;;4724811;30;20048;-88
2021/10/24 05:55:54;;;;;;;15.02;9.30;;;6.90;96.60;;;;;;4735213;30;20035;-88
2021/10/24 05:58:44;;;;;;;18.60;9.95;;;6.90;96.60;;;;;;4803909;29;20475;-88
2021/10/24 06:08:25;;;;;;;14.45;9.35;;;6.80;96.60;;;;;;4732661;30;20496;-87
2021/10/24 06:14:49;;;;;;;15.18;10.32;;;6.70;96.70;;;;;;4733249;30;20124;-86
2021/10/24 06:24:41;;;;;;;19.73;9.50;;;6.60;96.80;;;;;;4719490;29;20105;-87
2021/10/24 06:30:26;;;;;;;15.90;10.35;;;6.60;96.90;;;;;;4715018;30;20098;-87
2021/10/24 06:32:54;;;;;;;19.23;10.10;;;6.60;97.00;;;;;;4700245;30;20049;-87
2021/10/24 06:35:47;;;;;;;15.85;10.10;;;6.60;96.90;;;;;;4717506;30;20595;-86
2021/10/24 06:38:46;;;;;;;15.80;10.43;;;6.60;96.70;;;;;;4717219;30;20086;-87
2021/10/24 06:42:00;;;;;;;15.82;9.93;;;6.60;96.90;;;;;;4718196;30;20501;-86
2021/10/24 06:44:44;;;;;;;14.27;9.85;;;6.60;96.80;;;;;;4710133;30;20057;-86
2021/10/24 06:50:27;;;;;;;17.67;10.25;;;6.40;96.20;;;;;;4734582;30;19931;-86
2021/10/24 07:29:44;;;;;;;14.80;9.43;;;6.30;96.70;;;;;;4825147;29;20403;-87
2021/10/24 07:32:59;;;;;;;17.33;10.15;;;6.30;96.70;;;;;;4774357;30;20078;-87
2021/10/24 07:43:02;;;;;;;16.42;10.07;;;6.40;96.80;;;;;;4798579;29;20074;-88
2021/10/24 07:45:37;;;;;;;14.90;10.07;;;6.40;96.70;;;;;;4730672;30;20422;-87
2021/10/24 07:48:11;;;;;;;16.13;9.75;;;6.50;96.80;;;;;;4781661;29;20615;-87
2021/10/24 07:50:37;;;;;;;16.77;10.55;;;6.50;97.00;;;;;;4793125;29;20046;-87
2021/10/24 07:53:29;;;;;;;17.30;11.43;;;6.50;97.00;;;;;;4784814;29;20055;-91
2021/10/24 07:56:44;;;;;;;18.65;10.10;;;6.60;97.00;;;;;;4783116;30;20054;-93
2021/10/24 07:59:54;;;;;;;17.20;9.93;;;6.60;96.90;;;;;;4791936;29;20078;-88
2021/10/24 08:02:50;;;;;;;18.65;10.77;;;6.70;96.90;;;;;;4753383;30;20138;-89
2021/10/24 08:05:46;;;;;;;20.85;11.30;;;6.80;97.00;;;;;;4756163;30;20121;-90
2021/10/24 08:08:45;;;;;;;16.70;10.13;;;6.80;96.90;;;;;;4754736;30;20082;-91
2021/10/24 08:14:24;;;;;;;;;;;6.90;97.10;;;;;;4826466;24;20058;-90
2021/10/24 08:17:27;;;;;;;17.17;10.27;;;6.90;96.60;;;;;;4793036;29;19929;-91
2021/10/24 08:56:29;;;;;;;16.35;8.68;;;8.00;96.60;;;;;;4785899;29;20062;-89
2021/10/24 08:59:29;;;;;;;15.80;9.85;;;8.00;96.40;;;;;;4789690;29;20073;-87
2021/10/24 09:01:56;;;;;;;15.85;9.20;;;8.10;96.80;;;;;;4789242;29;20047;-90
2021/10/24 09:30:41;;;;;;;12.88;8.77;;;8.80;95.60;;;;;;4752651;30;20518;-93
2021/10/24 10:33:32;;;;;;;15.00;7.28;;;10.60;93.00;;;;;;5118522;24;20066;-90
2021/10/24 10:36:03;;;;;;;12.95;7.60;;;10.70;93.00;;;;;;4817123;29;20114;-93
2021/10/24 11:24:29;;;;;;;10.95;5.60;;;11.90;89.30;;;;;;4817422;29;20407;-95
2021/10/24 14:27:20;;;;;;;10.73;4.72;;;13.70;85.10;;;;;;4753115;30;20521;-82
2021/10/24 14:30:02;;;;;;;9.30;4.82;;;13.60;84.50;;;;;;4750797;30;20105;-82
2021/10/24 14:32:28;;;;;;;8.63;4.70;;;13.60;85.20;;;;;;4737396;30;20379;-82
2021/10/24 14:35:25;;;;;;;10.13;4.93;;;13.70;86.10;;;;;;4751921;30;20047;-84
2021/10/24 14:37:50;;;;;;;11.50;5.28;;;13.70;84.90;;;;;;4752188;30;20060;-83
2021/10/24 14:40:41;;;;;;;10.60;4.78;;;13.70;86.90;;;;;;4753374;30;20051;-82
2021/10/24 14:44:20;;;;;;;8.52;4.80;;;13.80;88.70;;;;;;4664454;30;20065;-94
2021/10/24 14:47:16;;;;;;;11.70;5.22;;;13.70;87.00;;;;;;4680565;30;20439;-83
2021/10/24 14:50:15;;;;;;;11.82;5.05;;;13.70;86.20;;;;;;4665137;30;20045;-83
2021/10/24 14:52:43;;;;;;;12.88;4.95;;;13.70;86.30;;;;;;4666077;30;20054;-81
2021/10/24 14:58:51;;;;;;;10.18;4.88;;;13.70;84.20;;;;;;4769933;30;20405;-86
2021/10/24 15:02:32;;;;;;;7.50;4.93;;;13.60;84.90;;;;;;4746203;30;20071;-89
2021/10/24 15:13:47;;;;;;;7.88;4.70;;;13.50;85.90;;;;;;4714198;30;20185;-81
2021/10/24 15:33:49;;;;;;;7.32;4.38;;;13.30;85.60;;;;;;4807979;29;20143;-90
2021/10/24 16:40:45;;;;;;;10.50;5.40;;;13.00;91.90;;;;;;5087879;28;20095;-89
2021/10/24 16:52:53;;;;;;;8.95;5.13;;;12.80;91.80;;;;;;5085049;28;20154;-88
2021/10/24 16:55:53;;;;;;;9.63;5.20;;;12.70;91.80;;;;;;5070645;28;20090;-89
2021/10/24 17:12:36;;;;;;;8.20;5.35;;;12.50;92.00;;;;;;4973235;28;20051;-88
2021/10/24 17:18:20;;;;;;;8.25;4.95;;;12.30;92.00;;;;;;5892940;22;20113;-92
2021/10/24 17:20:58;;;;;;;9.23;5.35;;;12.30;92.10;;;;;;5091318;28;20047;-90
2021/10/24 17:59:38;;;;;;;8.52;5.20;;;11.60;92.60;;;;;;5072721;28;20120;-89
2021/10/24 18:10:08;;;;;;;8.57;4.90;;;11.40;92.60;;;;;;4992067;28;20320;-91
2021/10/24 18:28:00;;;;;;;8.48;5.15;;;11.00;92.60;;;;;;4895655;29;20059;-90
2021/10/24 18:34:50;;;;;;;9.38;5.22;;;10.90;92.80;;;;;;4917507;29;20424;-93
2021/10/24 18:41:00;;;;;;;9.32;4.88;;;10.80;92.80;;;;;;4901062;29;20098;-93
2021/10/24 18:43:42;;;;;;;9.45;5.35;;;10.70;93.00;;;;;;4919566;29;20051;-92
2021/10/24 18:46:22;;;;;;;8.07;5.00;;;10.70;92.90;;;;;;4914926;29;20055;-93
2021/10/24 18:49:23;;;;;;;11.60;5.18;;;10.60;93.10;;;;;;4940227;29;20437;-92
2021/10/24 18:52:36;;;;;;;9.43;5.65;;;10.60;93.20;;;;;;4926109;29;20507;-92
2021/10/24 18:55:21;;;;;;;10.18;5.50;;;10.50;93.10;;;;;;4920386;29;20039;-91
2021/10/24 18:57:50;;;;;;;9.05;5.57;;;10.40;93.30;;;;;;4913619;29;20056;-90
2021/10/24 19:00:25;;;;;;;9.77;5.65;;;10.40;93.30;;;;;;4920775;29;20082;-91
2021/10/24 19:02:59;;;;;;;9.43;5.90;;;10.30;93.30;;;;;;4917592;29;20603;-91
2021/10/24 19:09:41;;;;;;;9.35;5.55;;;10.20;93.50;;;;;;4939492;29;20038;-92
2021/10/24 19:12:46;;;;;;;9.23;5.45;;;10.10;93.50;;;;;;4964142;28;20061;-91
2021/10/24 19:15:33;;;;;;;10.20;6.22;;;10.10;93.70;;;;;;4983782;28;20133;-91
2021/10/24 19:22:55;;;;;;;;;;;;;;;;;;;;;
2021/10/24 19:28:52;;;;;;;8.98;5.20;;;9.80;94.10;;;;;;4873035;29;20060;-91
2021/10/24 19:34:45;;;;;;;8.40;5.10;;;9.60;93.90;;;;;;4861576;29;20056;-90
2021/10/24 19:37:56;;;;;;;9.35;5.38;;;9.60;94.00;;;;;;4847370;29;20057;-93
2021/10/24 19:41:02;;;;;;;9.13;5.20;;;9.50;94.10;;;;;;4853052;29;20049;-90
2021/10/24 19:43:59;;;;;;;;;;;;;;;;;;;;;
2021/10/24 19:59:05;;;;;;;7.13;4.82;;;9.20;94.10;;;;;;4860433;29;20047;-90
2021/10/24 20:02:26;;;;;;;8.68;5.45;;;9.10;94.00;;;;;;4840896;29;20088;-91
2021/10/24 20:05:00;;;;;;;9.52;5.35;;;9.00;93.90;;;;;;4846712;29;20060;-91
2021/10/24 20:14:48;;;;;;;7.75;4.60;;;8.90;93.90;;;;;;4886039;29;20135;-88
2021/10/24 20:24:50;;;;;;;7.35;4.68;;;8.70;93.90;;;;;;5176290;22;20071;-90
2021/10/24 20:27:23;;;;;;;9.35;6.03;;;8.60;93.90;;;;;;5067037;28;20060;-88
2021/10/24 20:30:55;;;;;;;7.22;5.20;;;8.60;94.40;;;;;;5075961;28;20036;-89
2021/10/24 20:37:17;;;;;;;9.43;5.63;;;8.40;94.60;;;;;;5042592;28;20044;-89
2021/10/24 20:39:43;;;;;;;9.43;6.32;;;8.40;94.90;;;;;;5073947;28;20098;-88
2021/10/24 20:42:53;;;;;;;10.00;5.78;;;8.40;95.10;;;;;;5071776;28;20379;-89
2021/10/24 20:45:19;;;;;;;10.32;6.55;;;8.40;95.20;;;;;;5009103;28;20147;-89
2021/10/24 20:47:50;;;;;;;9.65;6.82;;;8.30;95.20;;;;;;5093146;28;20118;-88
2021/10/24 20:50:44;;;;;;;11.50;6.43;;;8.30;95.50;;;;;;5071021;28;20077;-88
2021/10/24 20:53:24;;;;;;;;;;;8.30;95.50;;;;;;5092852;28;20040;-88
2021/10/24 20:55:53;;;;;;;11.47;6.30;;;8.20;94.20;;;;;;5070839;28;20337;-87
2021/10/24 20:58:22;;;;;;;11.70;6.50;;;8.20;95.30;;;;;;5074865;28;20048;-89
2021/10/24 21:00:50;;;;;;;10.40;6.15;;;8.20;95.60;;;;;;5075299;28;20048;-88
2021/10/24 21:03:19;;;;;;;11.05;6.30;;;8.20;95.60;;;;;;5075165;28;20044;-88
2021/10/24 21:05:45;;;;;;;10.43;5.82;;;8.10;95.40;;;;;;5065583;28;20041;-89
2021/10/24 21:08:25;;;;;;;11.23;6.53;;;8.10;95.20;;;;;;5055968;28;20183;-88
2021/10/24 21:10:57;;;;;;;8.13;5.70;;;8.10;95.20;;;;;;5072511;28;20472;-89
2021/10/24 21:17:02;;;;;;;9.25;5.78;;;8.00;95.30;;;;;;5070461;28;20056;-88
2021/10/24 21:19:36;;;;;;;8.73;5.53;;;7.90;95.10;;;;;;5060784;28;20529;-91
2021/10/24 21:22:24;;;;;;;10.10;5.80;;;7.90;95.10;;;;;;5059382;28;20033;-89
2021/10/24 21:24:50;;;;;;;9.52;6.60;;;7.90;95.00;;;;;;5060188;28;20056;-89
2021/10/24 21:27:18;;;;;;;9.90;5.63;;;7.80;95.00;;;;;;5058404;28;20060;-88
2021/10/24 21:29:45;;;;;;;11.10;6.47;;;7.80;95.00;;;;;;5059755;28;20055;-88
2021/10/24 21:32:39;;;;;;;9.93;6.07;;;7.80;94.80;;;;;;5058147;28;20067;-89
2021/10/24 21:35:20;;;;;;;9.43;6.03;;;7.70;94.60;;;;;;4960506;28;20046;-89
2021/10/24 21:37:50;;;;;;;9.25;5.47;;;7.70;94.80;;;;;;4961058;28;20043;-90
2021/10/24 21:40:47;;;;;;;9.60;5.82;;;7.60;94.60;;;;;;5037807;28;20057;-89
2021/10/24 21:43:25;;;;;;;9.77;5.85;;;7.60;94.50;;;;;;5059477;28;20384;-90
2021/10/24 21:45:51;;;;;;;8.98;5.53;;;7.60;94.50;;;;;;5058600;28;20047;-89
2021/10/24 21:48:19;;;;;;;10.45;7.25;;;7.50;94.70;;;;;;5059016;28;20040;-88
2021/10/24 21:50:48;;;;;;;11.13;6.32;;;7.50;94.70;;;;;;5059232;28;20114;-89
2021/10/24 21:53:20;;;;;;;9.60;5.78;;;7.50;94.80;;;;;;5076264;28;20434;-89
2021/10/24 21:55:52;;;;;;;9.45;5.80;;;7.50;94.80;;;;;;5097739;28;20040;-89
2021/10/24 21:58:20;;;;;;;9.77;5.78;;;7.50;94.80;;;;;;5079216;28;20071;-89
2021/10/24 22:00:48;;;;;;;9.27;6.13;;;7.40;94.70;;;;;;5078634;28;20130;-90
2021/10/24 22:03:14;;;;;;;8.93;6.63;;;7.40;94.80;;;;;;5096407;28;20578;-90
2021/10/24 22:05:40;;;;;;;9.80;6.55;;;7.40;94.80;;;;;;5078792;28;20475;-90
2021/10/24 22:08:05;;;;;;;10.27;6.05;;;7.40;94.80;;;;;;5078008;28;20048;-90
2021/10/24 22:10:31;;;;;;;12.40;6.22;;;7.30;94.70;;;;;;5079329;28;20090;-89
2021/10/24 22:12:56;;;;;;;11.15;7.07;;;7.30;94.70;;;;;;5078302;28;20055;-89
2021/10/24 22:15:22;;;;;;;10.55;6.20;;;7.30;94.80;;;;;;5078287;28;20066;-89
2021/10/24 22:17:48;;;;;;;12.57;6.70;;;7.30;94.90;;;;;;5078856;28;20467;-88
2021/10/24 22:20:13;;;;;;;9.98;7.00;;;7.30;94.90;;;;;;5078662;28;20104;-89
2021/10/24 22:22:41;;;;;;;11.70;7.40;;;7.30;95.00;;;;;;5095700;28;20044;-89
2021/10/24 22:25:08;;;;;;;11.80;6.80;;;7.30;95.20;;;;;;5077342;28;20051;-88
2021/10/24 22:27:33;;;;;;;10.77;7.00;;;7.20;95.20;;;;;;5078037;28;20131;-88
2021/10/24 22:30:00;;;;;;;9.68;6.35;;;7.20;95.30;;;;;;5078631;28;20203;-89
2021/10/24 22:32:26;;;;;;;11.73;7.47;;;7.20;95.20;;;;;;5077764;28;20051;-89
2021/10/24 22:34:52;;;;;;;10.40;6.53;;;7.20;95.20;;;;;;5095957;28;20044;-88
2021/10/24 22:37:17;;;;;;;10.82;6.68;;;7.20;95.30;;;;;;5077840;28;20044;-88
2021/10/24 22:39:43;;;;;;;13.77;7.55;;;7.20;95.10;;;;;;5096565;28;20042;-90
2021/10/24 22:42:09;;;;;;;11.25;7.10;;;7.20;95.20;;;;;;5094805;28;20051;-88
2021/10/24 22:44:36;;;;;;;9.45;6.88;;;7.20;95.10;;;;;;5077836;28;20040;-88
2021/10/24 22:47:02;;;;;;;12.65;7.05;;;7.20;94.80;;;;;;5078000;28;20534;-90
2021/10/24 22:49:28;;;;;;;11.48;6.93;;;7.20;94.70;;;;;;5077391;28;20132;-91
2021/10/24 22:51:53;;;;;;;9.10;6.50;;;7.20;94.70;;;;;;5077367;28;20051;-90
2021/10/24 22:54:19;;;;;;;11.55;7.10;;;7.20;94.60;;;;;;5065730;28;20040;-91
2021/10/24 22:56:45;;;;;;;12.98;8.10;;;7.10;94.60;;;;;;5057048;28;20052;-91
2021/10/24 22:59:11;;;;;;;12.85;7.93;;;7.10;94.60;;;;;;5057452;28;20387;-90
2021/10/24 23:01:37;;;;;;;13.07;7.15;;;7.10;94.60;;;;;;5057729;28;20056;-89
2021/10/24 23:04:04;;;;;;;13.73;8.73;;;7.10;94.60;;;;;;5074661;28;20064;-89
2021/10/24 23:06:30;;;;;;;11.82;6.72;;;7.10;94.70;;;;;;5075157;28;20071;-90
2021/10/24 23:08:55;;;;;;;10.95;6.75;;;7.10;94.70;;;;;;5057137;28;20480;-90
2021/10/24 23:11:22;;;;;;;11.48;7.13;;;7.10;94.50;;;;;;5056573;28;20044;-91
2021/10/24 23:13:48;;;;;;;12.10;7.45;;;7.10;94.60;;;;;;5057016;28;20057;-90
2021/10/24 23:16:13;;;;;;;14.02;8.15;;;7.10;94.60;;;;;;5056908;28;20171;-90
2021/10/24 23:18:40;;;;;;;10.13;6.85;;;7.10;94.70;;;;;;5056459;28;20135;-90
2021/10/24 23:21:08;;;;;;;11.82;7.95;;;7.10;94.90;;;;;;5056824;28;20052;-89
2021/10/24 23:23:33;;;;;;;12.95;7.72;;;7.00;94.60;;;;;;5057181;28;20075;-89
2021/10/24 23:25:59;;;;;;;16.85;8.20;;;7.00;94.60;;;;;;5076458;28;20076;-91
2021/10/24 23:28:24;;;;;;;16.00;7.72;;;7.00;94.60;;;;;;5058598;28;20484;-90
2021/10/24 23:30:50;;;;;;;9.52;6.82;;;7.00;94.60;;;;;;5057355;28;20044;-91
2021/10/24 23:33:16;;;;;;;10.68;7.22;;;7.00;94.50;;;;;;5057553;28;20450;-90
2021/10/24 23:35:41;;;;;;;11.85;7.95;;;7.00;94.60;;;;;;5075157;28;20045;-91
2021/10/24 23:38:07;;;;;;;14.23;9.23;;;7.00;94.70;;;;;;5057448;28;20017;-91
2021/10/24 23:40:33;;;;;;;13.60;8.30;;;7.00;94.80;;;;;;5057414;28;20040;-90
2021/10/24 23:42:58;;;;;;;11.77;7.53;;;7.00;94.80;;;;;;5056832;28;20048;-90
2021/10/24 23:45:24;;;;;;;15.02;8.85;;;6.90;94.80;;;;;;5056618;28;20076;-90
2021/10/24 23:47:50;;;;;;;12.18;7.85;;;6.90;94.80;;;;;;5057239;28;20048;-91
2021/10/24 23:50:19;;;;;;;10.45;7.70;;;6.90;94.90;;;;;;5072609;28;20543;-91
2021/10/24 23:52:45;;;;;;;14.10;7.95;;;6.90;94.90;;;;;;5076967;28;20044;-91
2021/10/24 23:55:11;;;;;;;11.68;7.50;;;6.90;94.90;;;;;;5086862;28;20035;-90
2021/10/24 23:57:36;;;;;;;12.00;7.45;;;6.90;95.00;;;;;;5057654;28;20472;-91
